createdAt,value
2017-12-19T00:02:21.775Z,30.30
2017-12-19T00:04:49.940Z,24.92
2017-12-19T00:07:18.045Z,26.10
2017-12-19T00:09:46.141Z,29.40
2017-12-19T00:12:14.291Z,29.58
2017-12-19T00:14:43.136Z,36.00
2017-12-19T00:17:11.231Z,31.95
2017-12-19T00:19:40.083Z,29.80
2017-12-19T00:22:08.202Z,30.02
2017-12-19T00:24:36.538Z,25.60
2017-12-19T00:27:04.688Z,24.92
2017-12-19T00:29:32.784Z,25.45
2017-12-19T00:32:01.069Z,26.85
2017-12-19T00:34:29.164Z,29.52
2017-12-19T00:36:57.279Z,24.98
2017-12-19T00:39:26.174Z,23.70
2017-12-19T00:41:54.815Z,25.05
2017-12-19T00:44:22.910Z,26.08
2017-12-19T00:46:51.071Z,27.45
2017-12-19T00:49:19.192Z,24.40
2017-12-19T00:51:47.279Z,28.73
2017-12-19T00:54:16.162Z,21.90
2017-12-19T00:56:45.023Z,23.83
2017-12-19T00:59:13.146Z,24.67
2017-12-19T01:01:41.297Z,25.65
2017-12-19T01:04:09.375Z,24.33
2017-12-19T01:06:38.464Z,19.85
2017-12-19T01:09:06.646Z,25.08
2017-12-19T01:11:34.804Z,23.65
2017-12-19T01:14:03.804Z,23.33
2017-12-19T01:16:32.036Z,26.67
2017-12-19T01:19:00.323Z,25.00
2017-12-19T01:21:28.696Z,26.48
2017-12-19T01:23:56.841Z,21.25
2017-12-19T01:26:25.007Z,24.52
2017-12-19T01:28:53.238Z,22.62
2017-12-19T01:31:21.409Z,28.62
2017-12-19T01:33:49.546Z,28.33
2017-12-19T01:36:18.459Z,25.37
2017-12-19T01:38:46.640Z,27.60
2017-12-19T01:41:15.033Z,31.15
2017-12-19T01:43:43.920Z,27.45
2017-12-19T01:46:13.105Z,24.48
2017-12-19T01:48:41.201Z,30.98
2017-12-19T01:51:09.395Z,25.88
2017-12-19T01:53:37.562Z,27.92
2017-12-19T01:56:05.693Z,26.98
2017-12-19T01:58:33.753Z,29.37
2017-12-19T02:01:01.894Z,25.55
2017-12-19T02:03:29.968Z,31.35
2017-12-19T02:05:58.066Z,27.40
2017-12-19T02:08:26.947Z,28.75
2017-12-19T02:10:55.029Z,27.23
2017-12-19T02:13:23.151Z,23.95
2017-12-19T02:15:51.277Z,25.23
2017-12-19T02:18:19.368Z,24.67
2017-12-19T02:20:48.283Z,25.42
2017-12-19T02:23:16.398Z,38.40
2017-12-19T02:26:00.317Z,30.75
2017-12-19T02:28:28.418Z,28.17
2017-12-19T02:30:56.688Z,27.45
2017-12-19T02:33:24.799Z,28.85
2017-12-19T02:35:52.895Z,24.50
2017-12-19T02:38:21.002Z,30.02
2017-12-19T02:40:49.897Z,29.02
2017-12-19T02:43:21.702Z,23.87
2017-12-19T02:45:52.271Z,29.42
2017-12-19T02:48:20.354Z,27.73
2017-12-19T02:50:48.468Z,26.20
2017-12-19T02:53:16.586Z,26.05
2017-12-19T02:55:44.762Z,24.37
2017-12-19T02:58:12.903Z,25.62
2017-12-19T03:00:41.003Z,29.37
2017-12-19T03:03:09.874Z,25.67
2017-12-19T03:05:38.748Z,26.60
2017-12-19T03:08:06.832Z,26.55
2017-12-19T03:10:34.935Z,26.00
2017-12-19T03:13:03.836Z,28.98
2017-12-19T03:15:31.966Z,27.40
2017-12-19T03:18:00.062Z,25.90
2017-12-19T03:20:28.143Z,24.90
2017-12-19T03:22:56.284Z,23.98
2017-12-19T03:25:24.344Z,24.10
2017-12-19T03:27:53.231Z,27.70
2017-12-19T03:30:21.330Z,25.50
2017-12-19T03:32:50.171Z,25.12
2017-12-19T03:35:18.291Z,25.27
2017-12-19T03:37:46.425Z,30.73
2017-12-19T03:40:14.520Z,24.90
2017-12-19T03:42:43.380Z,25.05
2017-12-19T03:45:11.541Z,36.08
2017-12-19T03:47:39.637Z,30.45
2017-12-19T03:50:08.583Z,31.62
2017-12-19T03:52:36.679Z,28.62
2017-12-19T03:55:04.781Z,31.83
2017-12-19T03:57:32.956Z,30.00
2017-12-19T04:00:01.019Z,30.67
2017-12-19T04:02:29.103Z,29.25
2017-12-19T04:04:57.224Z,32.22
2017-12-19T04:07:25.357Z,26.27
2017-12-19T04:09:54.266Z,29.98
2017-12-19T04:12:22.316Z,31.80
2017-12-19T04:14:50.439Z,33.28
2017-12-19T04:17:18.532Z,31.48
2017-12-19T04:19:47.416Z,27.40
2017-12-19T04:22:15.523Z,29.25
2017-12-19T04:24:43.635Z,29.65
2017-12-19T04:27:11.751Z,28.92
2017-12-19T04:29:39.893Z,32.42
2017-12-19T04:32:07.972Z,27.98
2017-12-19T04:34:36.849Z,32.63
2017-12-19T04:37:04.940Z,38.72
2017-12-19T04:39:33.837Z,36.35
2017-12-19T04:42:01.941Z,42.55
2017-12-19T04:44:30.066Z,53.72
2017-12-19T04:46:58.947Z,54.75
2017-12-19T04:49:27.062Z,50.22
2017-12-19T04:51:55.183Z,34.83
2017-12-19T04:54:23.304Z,35.75
2017-12-19T04:56:51.431Z,33.58
2017-12-19T04:59:19.500Z,32.95
2017-12-19T05:01:47.635Z,35.63
2017-12-19T05:04:15.731Z,37.67
2017-12-19T05:06:43.985Z,50.67
2017-12-19T05:09:12.089Z,37.05
2017-12-19T05:11:40.315Z,48.50
2017-12-19T05:14:08.443Z,33.70
2017-12-19T05:16:36.600Z,32.53
2017-12-19T05:19:04.738Z,31.30
2017-12-19T05:21:32.857Z,31.70
2017-12-19T05:24:00.978Z,36.33
2017-12-19T05:26:29.096Z,33.85
2017-12-19T05:28:57.250Z,29.60
2017-12-19T05:31:25.609Z,30.95
2017-12-19T05:33:53.720Z,29.10
2017-12-19T05:36:21.850Z,30.35
2017-12-19T05:38:50.027Z,26.95
2017-12-19T05:41:18.136Z,22.95
2017-12-19T05:43:47.004Z,27.92
2017-12-19T05:46:15.907Z,29.17
2017-12-19T05:48:44.039Z,26.70
2017-12-19T05:51:12.323Z,27.00
2017-12-19T05:53:40.677Z,25.58
2017-12-19T05:56:08.800Z,27.42
2017-12-19T05:58:36.947Z,26.50
2017-12-19T06:01:05.056Z,31.58
2017-12-19T06:03:33.204Z,29.70
2017-12-19T06:06:01.365Z,27.40
2017-12-19T06:08:29.641Z,28.25
2017-12-19T06:10:58.621Z,31.50
2017-12-19T06:13:26.796Z,28.05
2017-12-19T06:15:55.767Z,26.37
2017-12-19T06:18:23.904Z,31.45
2017-12-19T06:20:52.080Z,27.37
2017-12-19T06:23:20.203Z,29.77
2017-12-19T06:25:48.279Z,33.55
2017-12-19T06:28:16.366Z,36.25
2017-12-19T06:30:44.563Z,37.20
2017-12-19T06:33:12.665Z,36.05
2017-12-19T06:35:40.807Z,33.67
2017-12-19T06:38:08.927Z,31.85
2017-12-19T06:40:36.991Z,37.88
2017-12-19T06:43:05.083Z,31.60
2017-12-19T06:45:33.338Z,31.58
2017-12-19T06:48:01.483Z,31.05
2017-12-19T06:50:30.442Z,29.75
2017-12-19T06:52:58.944Z,36.65
2017-12-19T06:55:27.104Z,37.70
2017-12-19T06:57:55.223Z,38.58
2017-12-19T07:00:23.406Z,41.10
2017-12-19T07:02:52.491Z,35.65
2017-12-19T07:05:20.599Z,44.05
2017-12-19T07:07:48.809Z,38.90
2017-12-19T07:10:16.904Z,30.92
2017-12-19T07:12:45.439Z,35.67
2017-12-19T07:15:13.532Z,26.95
2017-12-19T07:17:41.683Z,30.37
2017-12-19T07:20:09.788Z,28.52
2017-12-19T07:22:37.900Z,27.83
2017-12-19T07:25:06.015Z,23.77
2017-12-19T07:27:34.118Z,22.90
2017-12-19T07:30:02.971Z,29.73
2017-12-19T07:32:31.106Z,24.33
2017-12-19T07:34:59.230Z,30.00
2017-12-19T07:37:27.331Z,29.48
2017-12-19T07:39:55.443Z,27.45
2017-12-19T07:42:23.639Z,22.65
2017-12-19T07:44:52.578Z,24.58
2017-12-19T07:47:20.729Z,40.08
2017-12-19T07:49:48.856Z,59.15
2017-12-19T07:52:16.996Z,64.00
2017-12-19T07:54:45.124Z,51.17
2017-12-19T07:57:14.154Z,33.95
2017-12-19T07:59:42.288Z,28.48
2017-12-19T08:02:10.443Z,26.55
2017-12-19T08:04:38.665Z,21.77
2017-12-19T08:07:06.771Z,19.98
2017-12-19T08:09:34.932Z,20.80
2017-12-19T08:12:03.089Z,21.12
2017-12-19T08:14:31.212Z,28.35
2017-12-19T08:16:59.299Z,55.17
2017-12-19T08:19:27.479Z,42.23
2017-12-19T08:21:55.883Z,25.30
2017-12-19T08:24:24.010Z,20.30
2017-12-19T08:26:52.106Z,20.57
2017-12-19T08:29:20.226Z,21.00
2017-12-19T08:31:48.376Z,22.57
2017-12-19T08:34:16.496Z,22.33
2017-12-19T08:36:44.631Z,20.30
2017-12-19T08:39:12.725Z,20.33
2017-12-19T08:41:41.612Z,19.30
2017-12-19T08:44:10.469Z,20.00
2017-12-19T08:46:38.653Z,19.47
2017-12-19T08:49:06.939Z,21.27
2017-12-19T08:51:35.011Z,24.20
2017-12-19T08:54:03.883Z,20.17
2017-12-19T08:56:31.964Z,21.97
2017-12-19T08:59:00.127Z,21.87
2017-12-19T09:01:28.206Z,19.47
2017-12-19T09:03:56.308Z,19.73
2017-12-19T09:06:24.387Z,23.40
2017-12-19T09:08:52.468Z,26.10
2017-12-19T09:11:20.551Z,23.27
2017-12-19T09:13:48.640Z,20.00
2017-12-19T09:16:16.715Z,20.33
2017-12-19T09:18:44.799Z,19.07
2017-12-19T09:21:13.639Z,20.53
2017-12-19T09:23:41.731Z,19.07
2017-12-19T09:26:09.819Z,19.90
2017-12-19T09:28:37.923Z,19.10
2017-12-19T09:31:06.755Z,21.60
2017-12-19T09:33:34.843Z,23.80
2017-12-19T09:36:02.934Z,24.50
2017-12-19T09:38:31.002Z,30.00
2017-12-19T09:41:00.647Z,23.23
2017-12-19T09:43:28.792Z,24.40
2017-12-19T09:45:56.875Z,23.47
2017-12-19T09:48:25.106Z,21.70
2017-12-19T09:50:53.999Z,20.80
2017-12-19T09:53:22.144Z,22.53
2017-12-19T09:55:50.230Z,25.80
2017-12-19T09:58:18.310Z,25.33
2017-12-19T10:00:47.151Z,23.90
2017-12-19T10:03:15.245Z,24.40
2017-12-19T10:05:43.336Z,23.67
2017-12-19T10:08:12.189Z,23.03
2017-12-19T10:10:41.046Z,21.40
2017-12-19T10:13:09.136Z,23.03
2017-12-19T10:15:37.218Z,23.53
2017-12-19T10:18:05.307Z,23.97
2017-12-19T10:20:33.388Z,23.93
2017-12-19T10:23:02.244Z,23.53
2017-12-19T10:25:30.326Z,20.83
2017-12-19T10:27:58.414Z,20.30
2017-12-19T10:30:27.269Z,21.03
2017-12-19T10:32:55.372Z,20.40
2017-12-19T10:35:24.234Z,21.67
2017-12-19T10:37:52.326Z,19.77
2017-12-19T10:40:20.416Z,20.67
2017-12-19T10:42:49.271Z,22.07
2017-12-19T10:45:17.364Z,19.03
2017-12-19T10:47:45.495Z,20.00
2017-12-19T10:50:13.688Z,20.63
2017-12-19T10:52:41.784Z,20.83
2017-12-19T10:55:10.650Z,21.40
2017-12-19T10:57:38.731Z,20.00
2017-12-19T11:00:06.874Z,20.60
2017-12-19T11:02:35.164Z,27.57
2017-12-19T11:05:03.256Z,21.93
2017-12-19T11:07:31.506Z,20.50
2017-12-19T11:09:59.597Z,20.30
2017-12-19T11:12:28.447Z,22.70
2017-12-19T11:14:56.532Z,22.03
2017-12-19T11:17:24.621Z,19.57
2017-12-19T11:19:53.479Z,21.57
2017-12-19T11:22:21.580Z,24.20
2017-12-19T11:24:50.429Z,20.67
2017-12-19T11:27:18.549Z,20.07
2017-12-19T11:29:47.425Z,20.97
2017-12-19T11:32:16.284Z,24.97
2017-12-19T11:34:44.404Z,22.20
2017-12-19T11:37:12.532Z,22.97
2017-12-19T11:39:40.648Z,25.70
2017-12-19T11:42:09.516Z,26.57
2017-12-19T11:44:38.393Z,24.80
2017-12-19T11:47:06.475Z,26.10
2017-12-19T11:49:35.337Z,26.73
2017-12-19T11:52:03.431Z,27.83
2017-12-19T11:54:32.335Z,28.67
2017-12-19T11:57:00.451Z,29.07
2017-12-19T11:59:28.569Z,28.48
2017-12-19T12:01:56.701Z,32.95
2017-12-19T12:04:24.787Z,32.70
2017-12-19T12:06:53.643Z,28.98
2017-12-19T12:09:21.753Z,34.03
2017-12-19T12:11:50.643Z,35.03
2017-12-19T12:14:18.748Z,38.30
2017-12-19T12:16:46.847Z,35.58
2017-12-19T12:19:15.179Z,37.78
2017-12-19T12:21:43.351Z,33.92
2017-12-19T12:24:11.471Z,105.70
2017-12-19T12:26:40.103Z,36.78
2017-12-19T12:29:08.211Z,42.13
2017-12-19T12:31:36.600Z,40.47
2017-12-19T12:34:04.747Z,34.10
2017-12-19T12:36:32.807Z,37.72
2017-12-19T12:39:00.917Z,33.33
2017-12-19T12:41:29.072Z,37.97
2017-12-19T12:43:57.143Z,36.20
2017-12-19T12:46:25.256Z,37.35
2017-12-19T12:48:53.381Z,36.38
2017-12-19T12:51:21.491Z,34.47
2017-12-19T12:53:49.760Z,35.15
2017-12-19T12:56:17.871Z,35.85
2017-12-19T12:58:46.087Z,35.67
2017-12-19T13:01:14.197Z,37.35
2017-12-19T13:03:42.303Z,38.30
2017-12-19T13:06:10.379Z,35.08
2017-12-19T13:08:38.459Z,42.70
2017-12-19T13:11:06.559Z,34.60
2017-12-19T13:13:35.438Z,37.70
2017-12-19T13:16:04.366Z,39.65
2017-12-19T13:18:32.409Z,35.30
2017-12-19T13:21:01.269Z,40.25
2017-12-19T13:23:29.359Z,34.75
2017-12-19T13:25:58.211Z,29.83
2017-12-19T13:28:26.310Z,34.90
2017-12-19T13:30:55.181Z,31.98
2017-12-19T13:33:23.312Z,44.28
2017-12-19T13:35:51.395Z,60.30
2017-12-19T13:38:19.505Z,41.28
2017-12-19T13:40:47.592Z,36.42
2017-12-19T13:43:16.443Z,36.15
2017-12-19T13:45:44.575Z,41.13
2017-12-19T13:48:12.666Z,42.53
2017-12-19T13:50:40.764Z,39.80
2017-12-19T13:53:08.847Z,46.60
2017-12-19T13:55:37.747Z,43.05
2017-12-19T13:58:06.593Z,40.28
2017-12-19T14:00:35.677Z,38.42
2017-12-19T14:03:03.748Z,39.40
2017-12-19T14:05:31.833Z,37.17
2017-12-19T14:07:59.927Z,40.22
2017-12-19T14:10:28.799Z,36.53
2017-12-19T14:12:56.996Z,37.80
2017-12-19T14:15:25.140Z,35.88
2017-12-19T14:17:53.236Z,31.12
2017-12-19T14:20:21.341Z,38.65
2017-12-19T14:22:49.431Z,36.00
2017-12-19T14:25:17.541Z,33.78
2017-12-19T14:27:45.631Z,33.28
2017-12-19T14:30:13.739Z,33.42
2017-12-19T14:32:41.842Z,51.10
2017-12-19T14:35:09.944Z,43.92
2017-12-19T14:37:38.052Z,39.20
2017-12-19T14:40:06.176Z,39.50
2017-12-19T14:42:35.028Z,35.72
2017-12-19T14:45:03.137Z,36.72
2017-12-19T14:47:31.250Z,36.95
2017-12-19T14:49:59.368Z,38.25
2017-12-19T14:52:28.216Z,36.40
2017-12-19T14:54:56.326Z,47.10
2017-12-19T14:57:25.256Z,39.78
2017-12-19T14:59:53.339Z,44.15
2017-12-19T15:02:21.428Z,37.35
2017-12-19T15:04:49.548Z,42.80
2017-12-19T15:07:17.648Z,40.70
2017-12-19T15:09:45.759Z,37.75
2017-12-19T15:12:14.610Z,36.83
2017-12-19T15:14:42.729Z,36.95
2017-12-19T15:17:11.592Z,37.88
2017-12-19T15:19:39.710Z,37.30
2017-12-19T15:22:07.803Z,35.97
2017-12-19T15:24:35.888Z,39.10
2017-12-19T15:27:04.017Z,37.25
2017-12-19T15:29:32.117Z,38.83
2017-12-19T15:32:00.226Z,39.75
2017-12-19T15:34:28.317Z,41.90
2017-12-19T15:36:56.428Z,39.25
2017-12-19T15:39:24.586Z,40.90
2017-12-19T15:41:52.671Z,38.38
2017-12-19T15:44:20.752Z,40.85
2017-12-19T15:46:48.854Z,38.38
2017-12-19T15:49:17.706Z,37.55
2017-12-19T15:51:45.843Z,37.60
2017-12-19T15:54:13.919Z,38.15
2017-12-19T15:56:42.024Z,41.05
2017-12-19T15:59:10.213Z,40.88
2017-12-19T16:01:38.759Z,38.45
2017-12-19T16:04:06.834Z,40.63
2017-12-19T16:06:34.950Z,44.72
2017-12-19T16:09:03.031Z,40.67
2017-12-19T16:11:31.252Z,40.15
2017-12-19T16:13:59.393Z,42.75
2017-12-19T16:16:28.207Z,41.60
2017-12-19T16:18:56.304Z,43.38
2017-12-19T16:21:24.402Z,41.42
2017-12-19T16:23:52.547Z,41.40
2017-12-19T16:26:20.702Z,37.88
2017-12-19T16:28:49.132Z,42.75
2017-12-19T16:31:17.346Z,37.38
2017-12-19T16:33:45.437Z,42.30
2017-12-19T16:36:13.526Z,46.20
2017-12-19T16:38:41.624Z,42.78
2017-12-19T16:41:10.070Z,45.08
2017-12-19T16:43:38.952Z,44.92
2017-12-19T16:46:07.042Z,42.90
2017-12-19T16:48:35.115Z,43.30
2017-12-19T16:51:04.228Z,43.60
2017-12-19T16:53:32.339Z,43.47
2017-12-19T16:56:00.432Z,40.97
2017-12-19T16:58:28.738Z,45.47
2017-12-19T17:00:57.679Z,47.53
2017-12-19T17:03:25.772Z,42.50
2017-12-19T17:05:54.640Z,46.28
2017-12-19T17:08:22.785Z,44.25
2017-12-19T17:10:50.909Z,43.92
2017-12-19T17:13:20.550Z,44.00
2017-12-19T17:15:48.631Z,41.90
2017-12-19T17:18:16.729Z,41.17
2017-12-19T17:20:44.871Z,38.83
2017-12-19T17:23:13.786Z,42.03
2017-12-19T17:25:41.864Z,37.97
2017-12-19T17:28:10.883Z,38.78
2017-12-19T17:30:39.042Z,40.30
2017-12-19T17:33:07.353Z,41.03
2017-12-19T17:35:36.306Z,38.20
2017-12-19T17:38:05.503Z,43.60
2017-12-19T17:40:34.507Z,44.88
2017-12-19T17:43:02.631Z,43.55
2017-12-19T17:45:30.728Z,47.50
2017-12-19T17:47:59.579Z,50.03
2017-12-19T17:50:27.667Z,47.58
2017-12-19T17:52:55.817Z,45.50
2017-12-19T17:55:24.108Z,43.97
2017-12-19T17:57:52.222Z,49.47
2017-12-19T18:00:20.289Z,50.03
2017-12-19T18:02:48.399Z,50.08
2017-12-19T18:05:16.499Z,46.00
2017-12-19T18:07:44.587Z,47.53
2017-12-19T18:10:12.713Z,48.10
2017-12-19T18:12:40.825Z,45.50
2017-12-19T18:15:08.911Z,47.30
2017-12-19T18:17:36.999Z,47.78
2017-12-19T18:20:05.093Z,46.95
2017-12-19T18:22:33.226Z,45.05
2017-12-19T18:25:01.381Z,45.15
2017-12-19T18:27:30.263Z,47.50
2017-12-19T18:29:58.408Z,45.28
2017-12-19T18:32:26.526Z,54.10
2017-12-19T18:34:54.752Z,45.85
2017-12-19T18:37:23.678Z,47.70
2017-12-19T18:39:52.519Z,42.70
2017-12-19T18:42:20.616Z,42.20
2017-12-19T18:44:48.697Z,45.40
2017-12-19T18:47:17.600Z,46.67
2017-12-19T18:49:46.435Z,45.40
2017-12-19T18:52:14.511Z,47.28
2017-12-19T18:54:42.726Z,45.90
2017-12-19T18:57:11.567Z,49.08
2017-12-19T18:59:39.723Z,44.63
2017-12-19T19:02:07.852Z,47.97
2017-12-19T19:04:36.751Z,50.17
2017-12-19T19:07:05.648Z,47.53
2017-12-19T19:09:33.719Z,44.80
2017-12-19T19:12:01.808Z,46.13
2017-12-19T19:17:25.623Z,47.00
2017-12-19T19:19:53.810Z,52.17
2017-12-19T19:22:23.406Z,59.30
2017-12-19T19:24:52.457Z,51.70
2017-12-19T19:27:21.218Z,53.70
2017-12-19T19:29:50.265Z,63.47
2017-12-19T19:32:22.300Z,63.65
2017-12-19T19:34:50.410Z,62.00
2017-12-19T19:37:18.529Z,60.17
2017-12-19T19:39:46.646Z,57.13
2017-12-19T19:42:14.754Z,53.97
2017-12-19T19:44:42.892Z,55.92
2017-12-19T19:47:11.031Z,55.05
2017-12-19T19:49:39.206Z,56.13
2017-12-19T19:52:07.404Z,51.90
2017-12-19T19:54:36.021Z,53.25
2017-12-19T19:57:04.196Z,55.25
2017-12-19T19:59:32.309Z,49.50
2017-12-19T20:02:00.435Z,60.42
2017-12-19T20:04:29.428Z,51.55
2017-12-19T20:06:57.585Z,56.72
2017-12-19T20:09:25.715Z,55.50
2017-12-19T20:11:53.835Z,49.03
2017-12-19T20:14:23.385Z,56.05
2017-12-19T20:16:51.641Z,57.10
2017-12-19T20:19:19.717Z,51.50
2017-12-19T20:21:47.807Z,50.25
2017-12-19T20:24:15.938Z,49.92
2017-12-19T20:26:44.314Z,55.58
2017-12-19T20:29:12.427Z,50.88
2017-12-19T20:31:40.516Z,53.10
2017-12-19T20:34:08.687Z,47.60
2017-12-19T20:36:37.601Z,48.45
2017-12-19T20:39:06.481Z,52.62
2017-12-19T20:41:35.361Z,49.75
2017-12-19T20:44:03.476Z,47.42
2017-12-19T20:46:31.591Z,43.03
2017-12-19T20:48:59.768Z,45.55
2017-12-19T20:51:27.962Z,45.28
2017-12-19T20:53:56.855Z,46.47
2017-12-19T20:56:24.980Z,47.40
2017-12-19T20:58:53.941Z,45.35
2017-12-19T21:01:22.062Z,50.70
2017-12-19T21:03:51.611Z,44.05
2017-12-19T21:06:19.845Z,48.50
2017-12-19T21:08:47.970Z,48.53
2017-12-19T21:11:16.090Z,48.85
2017-12-19T21:13:44.218Z,44.75
2017-12-19T21:16:12.464Z,51.05
2017-12-19T21:18:40.729Z,43.55
2017-12-19T21:21:08.895Z,44.30
2017-12-19T21:23:37.017Z,43.38
2017-12-19T21:26:05.162Z,40.88
2017-12-19T21:28:33.288Z,38.05
2017-12-19T21:31:01.651Z,41.45
2017-12-19T21:33:29.764Z,43.75
2017-12-19T21:35:57.934Z,46.47
2017-12-19T21:38:26.815Z,42.10
2017-12-19T21:40:54.983Z,37.72
2017-12-19T21:43:23.831Z,46.10
2017-12-19T21:45:52.000Z,40.72
2017-12-19T21:48:20.137Z,42.75
2017-12-19T21:50:48.257Z,42.05
2017-12-19T21:53:16.375Z,44.03
2017-12-19T21:55:44.452Z,41.13
2017-12-19T21:58:12.586Z,38.50
2017-12-19T22:00:40.729Z,41.13
2017-12-19T22:03:08.803Z,40.80
2017-12-19T22:05:36.954Z,37.72
2017-12-19T22:08:05.083Z,52.08
2017-12-19T22:10:34.037Z,40.40
2017-12-19T22:13:02.862Z,40.05
2017-12-19T22:15:31.752Z,38.40
2017-12-19T22:18:00.643Z,38.85
2017-12-19T22:20:29.591Z,35.78
2017-12-19T22:22:57.754Z,34.08
2017-12-19T22:25:25.874Z,33.55
2017-12-19T22:27:54.777Z,37.88
2017-12-19T22:30:23.646Z,40.10
2017-12-19T22:32:52.536Z,39.38
2017-12-19T22:35:21.422Z,35.38
2017-12-19T22:37:50.369Z,37.55
2017-12-19T22:40:18.483Z,35.45
2017-12-19T22:42:47.376Z,36.15
2017-12-19T22:45:16.208Z,39.22
2017-12-19T22:47:44.519Z,34.17
2017-12-19T22:50:13.480Z,35.70
2017-12-19T22:52:41.574Z,31.95
2017-12-19T22:55:09.705Z,33.20
2017-12-19T22:57:37.831Z,34.35
2017-12-19T23:00:06.706Z,32.15
2017-12-19T23:02:34.818Z,32.30
2017-12-19T23:05:02.947Z,35.95
2017-12-19T23:07:31.015Z,33.03
2017-12-19T23:09:59.917Z,36.78
2017-12-19T23:12:28.069Z,32.58
2017-12-19T23:14:56.186Z,33.65
2017-12-19T23:17:24.926Z,36.30
2017-12-19T23:19:53.669Z,34.00
2017-12-19T23:22:21.796Z,30.30
2017-12-19T23:24:49.950Z,34.00
2017-12-19T23:27:18.051Z,32.05
2017-12-19T23:29:46.884Z,32.95
2017-12-19T23:32:14.999Z,33.95
2017-12-19T23:34:43.910Z,35.40
2017-12-19T23:37:12.743Z,30.83
2017-12-19T23:39:40.878Z,32.30
2017-12-19T23:42:08.951Z,35.47
2017-12-19T23:44:37.032Z,31.27
2017-12-19T23:47:05.138Z,35.17
2017-12-19T23:49:33.413Z,31.20
2017-12-19T23:52:01.508Z,31.37
2017-12-19T23:54:29.590Z,33.53
2017-12-19T23:56:57.734Z,34.58
2017-12-19T23:59:26.700Z,30.20
